Time;durP1;ratioP1;P1;durP2;ratioP2;P2;SDS_P1;SDS_P2;PMS_P1;PMS_P2;Temp;Humidity;BMP_temperature;BMP_pressure;BME280_temperature;BME280_humidity;BME280_pressure;Samples;Min_cycle;Max_cycle;Signal;HPM_P1;HPM_P2
2022/02/19 00:01:50;;;;;;;26.97;13.15;;;;;;;6.63;79.87;101112.22;1890858;76;21065;-62
2022/02/19 00:04:19;;;;;;;30.17;12.98;;;;;;;6.61;79.97;101108.77;1890865;76;21058;-62
2022/02/19 00:06:47;;;;;;;28.12;12.10;;;;;;;6.59;80.05;101117.09;1890833;76;21061;-62
2022/02/19 00:09:18;;;;;;;29.85;13.88;;;;;;;6.60;80.03;101131.87;1926269;73;21169;-63
2022/02/19 00:11:47;;;;;;;25.75;11.12;;;;;;;6.55;80.15;101138.52;1933556;74;21028;-61
2022/02/19 00:14:15;;;;;;;33.80;13.58;;;;;;;6.54;80.19;101137.63;1933556;74;21411;-62
2022/02/19 00:16:44;;;;;;;31.95;13.72;;;;;;;6.56;80.11;101138.46;1933648;74;21106;-62
2022/02/19 00:19:13;;;;;;;30.57;14.58;;;;;;;6.57;80.02;101146.74;1933683;74;21013;-62
2022/02/19 00:21:43;;;;;;;28.65;13.18;;;;;;;6.56;79.97;101145.00;1933602;74;21064;-62
2022/02/19 00:24:12;;;;;;;30.92;13.40;;;;;;;6.54;79.86;101150.70;1933588;74;21122;-62
2022/02/19 00:26:41;;;;;;;32.17;14.00;;;;;;;6.53;79.93;101156.84;1933870;74;21512;-62
2022/02/19 00:29:10;;;;;;;31.35;13.85;;;;;;;6.53;79.87;101159.46;1933737;74;21145;-63
2022/02/19 00:31:38;;;;;;;31.25;13.68;;;;;;;6.51;79.85;101158.63;1933610;74;21067;-63
2022/02/19 00:34:08;;;;;;;32.38;14.30;;;;;;;6.50;79.83;101164.73;1933616;74;21072;-62
2022/02/19 00:36:37;;;;;;;33.98;14.03;;;;;;;6.51;79.77;101167.78;1933506;74;21494;-63
2022/02/19 00:39:06;;;;;;;34.38;15.43;;;;;;;6.43;79.77;101164.40;1933650;74;21098;-62
2022/02/19 00:41:37;;;;;;;42.93;17.70;;;;;;;6.37;79.87;101171.05;1933865;74;21589;-62
2022/02/19 00:44:07;;;;;;;34.23;14.55;;;;;;;6.34;79.90;101170.66;1933621;74;21028;-62
2022/02/19 00:46:37;;;;;;;36.50;15.65;;;;;;;6.29;79.93;101178.12;1933272;74;21474;-62
2022/02/19 00:49:06;;;;;;;37.10;15.88;;;;;;;6.24;80.01;101179.95;1933604;74;21101;-62
2022/02/19 00:51:35;;;;;;;31.17;13.53;;;;;;;6.15;80.22;101180.48;1933603;74;21466;-62
2022/02/19 00:54:04;;;;;;;32.65;14.03;;;;;;;6.18;80.23;101187.45;1933593;74;21072;-62
2022/02/19 00:56:33;;;;;;;32.70;14.28;;;;;;;6.21;80.05;101196.53;1933689;74;21079;-62
2022/02/19 00:59:01;;;;;;;32.58;13.32;;;;;;;6.21;80.04;101197.84;1933724;74;21506;-62
2022/02/19 01:01:31;;;;;;;31.07;14.33;;;;;;;6.24;79.95;101206.11;1933689;74;21158;-62
2022/02/19 01:04:01;;;;;;;30.68;14.60;;;;;;;6.28;79.84;101209.09;1931711;74;21497;-63
2022/02/19 01:06:31;;;;;;;35.63;14.65;;;;;;;6.27;79.83;101217.39;1933590;74;21043;-62
2022/02/19 01:09:00;;;;;;;32.48;13.40;;;;;;;6.23;79.91;101212.20;1937207;74;21145;-62
2022/02/19 01:11:29;;;;;;;30.60;13.28;;;;;;;6.22;79.86;101221.81;1940461;74;21056;-62
2022/02/19 01:13:58;;;;;;;34.67;14.40;;;;;;;6.21;79.86;101221.83;1940376;74;21047;-63
2022/02/19 01:16:26;;;;;;;31.68;13.68;;;;;;;6.17;79.99;101229.70;1940386;74;21044;-61
2022/02/19 01:18:55;;;;;;;32.05;13.83;;;;;;;6.19;79.97;101231.85;1940430;74;21032;-62
2022/02/19 01:21:24;;;;;;;26.48;13.03;;;;;;;6.19;79.88;101244.07;1940423;74;21052;-62
2022/02/19 01:23:53;;;;;;;30.17;12.45;;;;;;;6.09;79.91;101249.87;1940450;74;21087;-62
2022/02/19 01:26:21;;;;;;;30.75;12.95;;;;;;;6.05;80.05;101249.48;1940463;74;21013;-63
2022/02/19 01:28:52;;;;;;;27.77;11.95;;;;;;;6.10;80.04;101258.56;1939741;74;21075;-62
2022/02/19 01:31:22;;;;;;;25.82;12.53;;;;;;;6.11;79.94;101258.55;1939901;74;21465;-61
2022/02/19 01:33:51;;;;;;;26.55;11.55;;;;;;;6.11;79.81;101268.16;1940413;74;21055;-61
2022/02/19 01:36:20;;;;;;;28.47;12.23;;;;;;;6.07;79.82;101266.02;1940411;74;21056;-62
2022/02/19 01:38:49;;;;;;;23.30;10.50;;;;;;;6.06;79.77;101264.27;1940338;74;21494;-62
2022/02/19 01:41:18;;;;;;;24.65;11.08;;;;;;;6.07;79.70;101266.02;1940337;74;21064;-62
2022/02/19 01:43:48;;;;;;;24.30;11.18;;;;;;;6.10;79.72;101264.66;1940548;74;21502;-62
2022/02/19 01:46:17;;;;;;;22.67;9.85;;;;;;;6.11;79.65;101289.93;1940400;74;21059;-62
2022/02/19 01:48:47;;;;;;;23.77;9.78;;;;;;;6.14;79.49;101292.94;1940428;74;21075;-62
2022/02/19 01:51:16;;;;;;;20.92;9.53;;;;;;;6.14;79.38;101292.52;1940549;74;21587;-62
2022/02/19 01:53:45;;;;;;;23.32;10.63;;;;;;;6.17;79.29;101299.00;1940300;74;21047;-62
2022/02/19 01:56:16;;;;;;;24.85;10.65;;;;;;;6.18;79.18;101301.19;1939054;74;21086;-61
2022/02/19 01:58:56;;;;;;;25.48;10.18;;;;;;;6.18;79.16;101304.66;1936762;74;21133;-62
2022/02/19 02:01:42;;;;;;;21.82;10.80;;;;;;;6.16;79.16;101303.82;1940405;74;21051;-61
2022/02/19 02:04:28;;;;;;;20.40;8.88;;;;;;;6.17;79.10;101318.61;1908542;74;21051;-62
2022/02/19 02:06:58;;;;;;;21.17;9.80;;;;;;;6.17;79.14;101318.61;1940414;74;21164;-63
2022/02/19 02:09:27;;;;;;;18.23;9.30;;;;;;;6.17;79.05;101321.22;1940383;74;21051;-63
2022/02/19 02:11:57;;;;;;;20.88;9.88;;;;;;;6.14;79.09;101317.36;1906707;74;21117;-62
2022/02/19 02:14:26;;;;;;;19.65;9.18;;;;;;;6.07;78.99;101326.56;1940293;74;21059;-62
2022/02/19 02:17:02;;;;;;;22.62;9.55;;;;;;;6.02;78.98;101338.40;1939869;74;21059;-62
2022/02/19 02:19:31;;;;;;;19.98;8.93;;;;;;;5.98;78.94;101345.41;1940421;74;21533;-62
2022/02/19 02:22:06;;;;;;;24.55;9.73;;;;;;;5.91;78.87;101348.07;1938751;74;21040;-62
2022/02/19 02:24:36;;;;;;;19.75;8.38;;;;;;;5.91;78.99;101357.22;1940526;74;21028;-62
2022/02/19 02:27:07;;;;;;;21.00;9.35;;;;;;;5.92;78.94;101360.23;1906632;74;21043;-62
2022/02/19 02:29:47;;;;;;;20.00;9.18;;;;;;;5.86;78.84;101362.92;1940496;74;21035;-62
2022/02/19 02:32:17;;;;;;;18.57;6.30;;;;;;;5.80;78.97;101377.77;1939392;74;21095;-62
2022/02/19 02:34:57;;;;;;;19.40;8.58;;;;;;;5.83;78.90;101378.63;1940390;74;21032;-62
2022/02/19 02:37:27;;;;;;;16.60;7.50;;;;;;;5.80;78.75;101379.08;1938928;74;21565;-63
2022/02/19 02:39:56;;;;;;;14.80;6.80;;;;;;;5.72;78.73;101379.61;1940325;74;21036;-62
2022/02/19 02:42:26;;;;;;;16.40;7.28;;;;;;;5.67;78.64;101389.67;1939267;74;21070;-62
2022/02/19 02:44:56;;;;;;;15.32;6.70;;;;;;;5.64;78.77;101387.93;1940520;74;21047;-62
2022/02/19 02:47:25;;;;;;;16.48;7.55;;;;;;;5.65;78.65;101390.98;1940370;74;21056;-62
2022/02/19 02:49:54;;;;;;;15.58;6.72;;;;;;;5.61;78.50;101403.66;1940295;74;21542;-62
2022/02/19 02:52:23;;;;;;;17.05;7.25;;;;;;;5.61;78.45;101411.49;1940390;74;21152;-62
2022/02/19 02:54:52;;;;;;;17.40;7.53;;;;;;;5.63;78.41;101414.09;1940364;74;21051;-62
2022/02/19 02:57:21;;;;;;;12.35;6.28;;;;;;;5.64;78.25;101416.67;1940441;74;21518;-61
2022/02/19 02:59:50;;;;;;;16.62;7.28;;;;;;;5.62;78.23;101423.66;1940375;74;21514;-62
2022/02/19 03:02:19;;;;;;;14.40;6.47;;;;;;;5.59;78.31;101423.70;1940493;74;21110;-62
2022/02/19 03:04:48;;;;;;;13.22;6.40;;;;;;;5.55;78.35;101420.24;1940346;74;21138;-62
2022/02/19 03:07:17;;;;;;;12.98;6.55;;;;;;;5.59;78.25;101426.31;1940325;74;21141;-62
2022/02/19 03:09:46;;;;;;;12.50;6.67;;;;;;;5.61;78.08;101432.39;1938929;74;21612;-62
2022/02/19 03:12:15;;;;;;;15.23;6.42;;;;;;;5.60;78.03;101433.25;1933513;74;21462;-62
2022/02/19 03:14:43;;;;;;;14.13;6.72;;;;;;;5.59;77.99;101441.98;1933501;74;21151;-62
2022/02/19 03:17:13;;;;;;;16.37;6.90;;;;;;;5.60;77.92;101441.09;1933609;74;21540;-63
2022/02/19 03:19:42;;;;;;;16.40;6.78;;;;;;;5.61;77.91;101438.47;1933717;74;21036;-62
2022/02/19 03:22:13;;;;;;;17.20;6.33;;;;;;;5.61;77.76;101443.70;1933655;74;21518;-61
2022/02/19 03:24:43;;;;;;;16.80;5.95;;;;;;;5.61;77.69;101446.31;1933761;74;21090;-62
2022/02/19 03:27:33;;;;;;;12.58;6.05;;;;;;;5.63;77.55;101449.37;1933660;74;21040;-62
2022/02/19 03:30:04;;;;;;;10.58;5.10;;;;;;;5.60;77.60;101451.09;1943024;74;21100;-62
2022/02/19 03:32:34;;;;;;;14.07;6.42;;;;;;;5.53;77.76;101460.30;1943902;74;21049;-62
2022/02/19 03:35:03;;;;;;;12.33;5.55;;;;;;;5.46;78.00;101459.48;1943956;74;21512;-62
2022/02/19 03:37:37;;;;;;;13.18;6.28;;;;;;;5.48;78.00;101465.98;1943992;74;21026;-62
2022/02/19 03:40:09;;;;;;;12.78;6.42;;;;;;;5.50;77.73;101471.64;1941825;74;21077;-62
2022/02/19 03:42:40;;;;;;;13.80;5.60;;;;;;;5.50;77.58;101474.26;1943937;74;21096;-62
2022/02/19 03:45:12;;;;;;;14.87;6.37;;;;;;;5.54;77.47;101480.33;1943876;74;21140;-62
2022/02/19 03:47:44;;;;;;;16.95;6.60;;;;;;;5.55;77.46;101482.94;1943844;74;21014;-61
2022/02/19 03:50:17;;;;;;;12.95;6.03;;;;;;;5.57;77.44;101494.66;1942897;74;21116;-61
2022/02/19 03:52:47;;;;;;;10.78;5.28;;;;;;;5.56;77.50;101492.94;1943900;74;21037;-62
2022/02/19 03:55:18;;;;;;;12.65;6.17;;;;;;;5.55;77.42;101495.11;1938547;74;21144;-62
2022/02/19 03:57:48;;;;;;;11.33;5.55;;;;;;;5.56;77.44;101494.25;1943823;74;21131;-62
2022/02/19 04:00:17;;;;;;;12.53;5.92;;;;;;;5.55;77.42;101500.34;1943913;74;21111;-62
2022/02/19 04:02:45;;;;;;;9.90;5.35;;;;;;;5.56;77.32;101505.55;1943825;74;21081;-63
2022/02/19 04:05:16;;;;;;;13.58;6.65;;;;;;;5.57;77.20;101509.92;1942744;74;21142;-62
2022/02/19 04:07:47;;;;;;;13.60;5.95;;;;;;;5.56;77.12;101508.62;1944052;74;21038;-62
2022/02/19 04:10:17;;;;;;;12.93;6.45;;;;;;;5.54;77.11;101509.06;1942838;74;21081;-61
2022/02/19 04:12:46;;;;;;;14.95;6.20;;;;;;;5.50;77.06;101515.19;1943848;74;21515;-62
2022/02/19 04:15:17;;;;;;;12.10;5.58;;;;;;;5.46;77.03;101510.84;1941455;74;21084;-62
2022/02/19 04:17:47;;;;;;;11.40;6.12;;;;;;;5.38;77.06;101507.83;1943401;74;21053;-62
2022/02/19 04:20:16;;;;;;;15.55;5.95;;;;;;;5.33;77.06;101520.06;1943868;74;21123;-62
2022/02/19 04:22:45;;;;;;;10.90;5.80;;;;;;;5.28;77.09;101524.44;1943841;74;21116;-62
2022/02/19 04:25:14;;;;;;;12.50;5.50;;;;;;;5.21;77.11;101526.19;1943824;74;21597;-62
2022/02/19 04:27:43;;;;;;;12.93;6.10;;;;;;;5.17;77.10;101532.30;1943941;74;21542;-62
2022/02/19 04:30:13;;;;;;;11.45;5.28;;;;;;;5.11;77.24;101540.59;1973472;72;21171;-62
2022/02/19 04:32:43;;;;;;;13.93;5.80;;;;;;;5.04;77.30;101547.59;1978537;72;21127;-62
2022/02/19 04:35:14;;;;;;;11.20;5.55;;;;;;;4.98;77.38;101547.59;1978995;72;21140;-62
2022/02/19 04:37:42;;;;;;;13.03;6.00;;;;;;;4.91;77.48;101557.64;1978984;72;21506;-62
2022/02/19 04:40:13;;;;;;;13.50;6.37;;;;;;;4.83;77.60;101558.52;1978955;72;21115;-62
2022/02/19 04:42:43;;;;;;;12.37;5.78;;;;;;;4.75;77.67;101571.14;1978739;72;21115;-63
2022/02/19 04:45:18;;;;;;;12.35;5.92;;;;;;;4.67;77.79;101574.19;1978678;72;21529;-63
2022/02/19 04:47:46;;;;;;;16.27;6.97;;;;;;;4.59;77.84;101572.48;1977614;72;21144;-62
2022/02/19 04:50:17;;;;;;;20.02;8.15;;;;;;;4.49;77.84;101581.17;1978642;72;21587;-62
2022/02/19 04:52:45;;;;;;;14.87;7.65;;;;;;;4.42;78.01;101589.41;1978771;72;21538;-62
2022/02/19 04:55:15;;;;;;;16.07;8.53;;;;;;;4.40;78.02;101599.42;1978656;72;21496;-62
2022/02/19 04:57:45;;;;;;;17.02;8.30;;;;;;;4.38;78.03;101598.11;1978835;72;21097;-62
2022/02/19 05:00:18;;;;;;;20.50;9.33;;;;;;;4.35;78.08;101602.05;1978718;72;21060;-63
2022/02/19 05:03:03;;;;;;;32.25;11.78;;;;;;;4.36;78.15;101615.95;1905623;75;21045;-62
2022/02/19 05:05:34;;;;;;;21.20;10.15;;;;;;;4.37;78.11;101614.64;1955670;72;21100;-62
2022/02/19 05:08:04;;;;;;;15.58;7.15;;;;;;;4.39;77.94;101618.53;1978869;72;21546;-62
2022/02/19 05:10:34;;;;;;;20.30;7.87;;;;;;;4.39;77.88;101625.05;1978884;72;21420;-62
2022/02/19 05:13:03;;;;;;;15.35;6.90;;;;;;;4.38;77.83;101634.62;1978945;72;21473;-62
2022/02/19 05:15:32;;;;;;;17.12;8.08;;;;;;;4.40;78.01;101642.45;1978842;72;21582;-63
2022/02/19 05:18:05;;;;;;;19.02;9.53;;;;;;;4.50;78.11;101649.42;1972023;72;21088;-68
2022/02/19 05:20:34;;;;;;;23.05;11.93;;;;;;;4.54;78.02;101643.34;1976587;72;21039;-72
2022/02/19 05:23:04;;;;;;;16.55;8.35;;;;;;;4.60;77.95;101642.47;1962114;72;21111;-69
2022/02/19 05:25:33;;;;;;;14.47;7.45;;;;;;;4.96;78.19;101655.94;1969258;72;21120;-62
2022/02/19 05:28:02;;;;;;;9.83;6.20;;;;;;;5.54;78.00;101656.22;1978724;72;21483;-63
2022/02/19 05:30:32;;;;;;;11.75;5.45;;;;;;;6.25;77.43;101658.50;1966224;72;21078;-63
2022/02/19 05:33:03;;;;;;;11.05;5.08;;;;;;;7.04;76.96;101663.13;1942012;73;21061;-62
2022/02/19 05:35:34;;;;;;;10.88;5.60;;;;;;;7.76;76.78;101670.64;1941130;74;21633;-63
2022/02/19 05:38:03;;;;;;;10.40;5.28;;;;;;;8.19;75.73;101667.02;1939951;74;22009;-61
2022/02/19 05:40:33;;;;;;;11.22;4.28;;;;;;;8.37;73.25;101668.47;1943789;74;21021;-61
2022/02/19 05:43:04;;;;;;;8.58;4.83;;;;;;;8.64;71.21;101671.16;1954588;73;21422;-61
2022/02/19 05:45:53;;;;;;;10.10;4.67;;;;;;;9.08;71.28;101677.87;1896595;76;21138;-61
2022/02/19 05:48:22;;;;;;;8.40;4.47;;;;;;;9.57;70.94;101678.70;1896798;76;21061;-61
2022/02/19 05:50:55;;;;;;;8.35;5.00;;;;;;;9.95;69.99;101679.23;1894765;76;21101;-61
2022/02/19 05:53:44;;;;;;;12.65;6.17;;;;;;;10.46;68.85;101679.45;1895256;76;21537;-62
2022/02/19 05:56:13;;;;;;;11.88;4.75;;;;;;;11.11;68.43;101685.30;1896662;76;21021;-61
2022/02/19 05:58:46;;;;;;;7.58;3.80;;;;;;;11.52;68.01;101689.90;1896724;76;21089;-63
2022/02/19 06:01:20;;;;;;;8.95;3.98;;;;;;;11.62;67.13;101689.21;1896195;76;21105;-61
2022/02/19 06:03:52;;;;;;;9.05;3.52;;;;;;;11.97;66.68;101699.23;1896601;76;21560;-61
2022/02/19 06:06:40;;;;;;;6.75;3.87;;;;;;;12.49;66.07;101704.70;1910864;75;21122;-63
2022/02/19 06:09:09;;;;;;;7.58;4.03;;;;;;;13.11;65.16;101699.55;1910979;75;21045;-64
2022/02/19 06:11:40;;;;;;;7.45;3.90;;;;;;;13.60;64.11;101694.36;1911056;75;21076;-64
2022/02/19 06:14:16;;;;;;;8.20;5.28;;;;;;;13.91;63.02;101702.03;1910811;75;21531;-65
2022/02/19 06:16:46;;;;;;;6.90;4.50;;;;;;;14.26;61.81;101709.94;1909212;75;21068;-62
2022/02/19 06:19:17;;;;;;;5.95;3.10;;;;;;;14.74;60.64;101712.52;1907435;75;21070;-65
2022/02/19 06:21:46;;;;;;;4.75;3.27;;;;;;;15.26;59.50;101708.98;1900682;75;21476;-64
2022/02/19 06:24:14;;;;;;;5.92;3.45;;;;;;;15.72;58.00;101716.24;1900510;75;21512;-65
2022/02/19 06:26:44;;;;;;;4.97;3.33;;;;;;;16.20;56.75;101720.25;1900460;75;21179;-68
2022/02/19 06:29:23;;;;;;;5.53;3.17;;;;;;;16.31;54.10;101725.07;1900497;75;21170;-67
2022/02/19 06:31:54;;;;;;;3.98;2.92;;;;;;;16.77;53.80;101727.30;1900595;75;21093;-68
2022/02/19 06:34:23;;;;;;;4.92;2.98;;;;;;;16.71;50.49;101728.91;1900571;75;21065;-67
2022/02/19 06:36:52;;;;;;;3.37;2.80;;;;;;;16.69;50.78;101732.13;1900587;75;21070;-67
2022/02/19 06:39:22;;;;;;;5.12;2.92;;;;;;;17.13;50.82;101738.39;1900340;75;21084;-67
2022/02/19 06:41:51;;;;;;;4.85;2.77;;;;;;;17.68;49.94;101740.84;1900624;75;21053;-67
2022/02/19 06:44:27;;;;;;;4.08;2.83;;;;;;;18.34;48.57;101732.44;1899038;75;21041;-68
2022/02/19 06:46:56;;;;;;;4.03;2.70;;;;;;;18.90;47.66;101727.05;1900649;75;21516;-66
2022/02/19 06:49:26;;;;;;;3.95;2.40;;;;;;;19.16;44.81;101725.95;1900504;75;21069;-67
2022/02/19 06:51:57;;;;;;;4.33;2.20;;;;;;;18.73;44.13;101725.78;1900310;75;21092;-65
2022/02/19 06:54:26;;;;;;;5.65;2.50;;;;;;;18.67;43.20;101726.14;1900461;75;21465;-66
2022/02/19 06:56:58;;;;;;;3.52;2.47;;;;;;;19.10;42.81;101722.33;1900614;75;21496;-66
2022/02/19 06:59:27;;;;;;;3.60;2.20;;;;;;;19.58;42.29;101730.98;1900439;75;21151;-65
2022/02/19 07:01:55;;;;;;;3.00;2.25;;;;;;;20.00;41.33;101733.80;1900637;75;21143;-67
2022/02/19 07:04:25;;;;;;;4.45;2.75;;;;;;;20.23;40.19;101733.66;1900357;75;21086;-67
2022/02/19 07:06:55;;;;;;;3.75;2.45;;;;;;;20.61;40.11;101720.51;1902922;75;21049;-63
2022/02/19 07:09:26;;;;;;;2.83;2.10;;;;;;;21.03;39.36;101729.80;1903372;75;21077;-67
2022/02/19 07:11:57;;;;;;;3.55;2.83;;;;;;;21.23;38.25;101732.92;1903296;75;21065;-67
2022/02/19 07:14:26;;;;;;;2.83;1.95;;;;;;;21.28;36.29;101736.16;1903326;75;21570;-68
2022/02/19 07:17:04;;;;;;;3.95;2.30;;;;;;;21.40;36.24;101733.98;1903139;75;21070;-71
2022/02/19 07:19:28;;;;;;;3.08;1.98;;;;;;;21.71;36.48;101734.07;1932426;73;21160;-70
2022/02/19 07:21:57;;;;;;;3.98;2.27;;;;;;;22.01;36.20;101741.39;1941829;73;21046;-69
2022/02/19 07:24:27;;;;;;;5.65;3.02;;;;;;;21.94;35.11;101743.14;1941837;73;21143;-68
2022/02/19 07:26:57;;;;;;;4.10;2.67;;;;;;;21.74;35.35;101751.26;1941704;74;21150;-69
2022/02/19 07:29:26;;;;;;;3.35;2.27;;;;;;;21.99;34.65;101754.91;1941744;74;21459;-65
2022/02/19 07:31:55;;;;;;;3.30;1.62;;;;;;;22.17;33.85;101757.60;1941742;74;21460;-70
2022/02/19 07:34:24;;;;;;;3.45;1.20;;;;;;;22.36;33.27;101758.48;1941684;74;21123;-69
2022/02/19 07:36:53;;;;;;;2.10;1.62;;;;;;;22.54;33.57;101760.81;1941710;74;21147;-69
2022/02/19 07:39:22;;;;;;;1.62;1.10;;;;;;;22.44;32.68;101761.10;1941853;74;21057;-69
2022/02/19 07:41:52;;;;;;;2.58;1.50;;;;;;;22.41;32.57;101762.20;1942744;73;21388;-68
2022/02/19 07:44:23;;;;;;;1.72;1.10;;;;;;;22.93;32.71;101761.49;1941740;74;21076;-67
2022/02/19 07:46:59;;;;;;;2.40;1.40;;;;;;;23.01;30.57;101768.97;1945563;72;21077;-67
2022/02/19 07:58:29;;;;;;;2.30;1.52;;;;;;;23.51;29.10;101776.35;1941554;74;21092;-64
2022/02/19 08:01:04;;;;;;;1.90;1.20;;;;;;;23.64;29.35;101777.59;1941790;73;20998;-68
2022/02/19 08:03:43;;;;;;;3.30;1.35;;;;;;;23.81;29.03;101777.18;1919762;74;21112;-69
2022/02/19 08:06:12;;;;;;;2.12;1.20;;;;;;;24.08;28.29;101782.17;1907641;74;21119;-65
2022/02/19 08:08:42;;;;;;;2.60;1.30;;;;;;;23.77;28.02;101782.87;1904476;75;21532;-69
2022/02/19 08:11:16;;;;;;;1.57;1.30;;;;;;;23.87;28.15;101781.22;1925913;73;21703;-68
2022/02/19 08:13:45;;;;;;;1.98;1.10;;;;;;;24.02;28.41;101788.55;1908417;74;21613;-71
2022/02/19 08:16:13;;;;;;;2.85;1.45;;;;;;;24.42;28.26;101789.36;1907791;75;21612;-70
2022/02/19 08:18:42;;;;;;;1.40;1.00;;;;;;;24.56;27.45;101797.20;1903167;74;21078;-68
2022/02/19 08:21:11;;;;;;;2.00;1.40;;;;;;;24.62;26.67;101802.11;1914898;74;21034;-71
2022/02/19 08:23:40;;;;;;;1.40;0.90;;;;;;;24.39;27.10;101795.02;1920376;75;21130;-74
2022/02/19 08:26:08;;;;;;;1.60;1.10;;;;;;;24.48;27.11;101800.99;1920486;75;21034;-71
2022/02/19 08:28:37;;;;;;;1.60;0.93;;;;;;;24.90;26.95;101793.56;1891787;75;21030;-72
2022/02/19 08:31:06;;;;;;;2.35;1.10;;;;;;;25.38;26.91;101799.89;1878115;76;21544;-71
2022/02/19 08:33:35;;;;;;;1.10;0.98;;;;;;;25.30;25.91;101801.87;1877967;76;21470;-69
2022/02/19 08:36:05;;;;;;;2.47;1.42;;;;;;;25.05;25.87;101793.14;1877925;76;21525;-70
2022/02/19 08:38:34;;;;;;;3.12;1.32;;;;;;;25.10;26.19;101798.12;1880768;75;21126;-73
2022/02/19 08:41:03;;;;;;;2.45;1.65;;;;;;;25.08;25.13;101800.09;1877965;76;21060;-74
2022/02/19 08:43:32;;;;;;;3.15;1.27;;;;;;;24.79;25.52;101807.45;1878110;76;21118;-69
2022/02/19 08:46:02;;;;;;;1.85;1.20;;;;;;;25.03;25.67;101805.05;1877993;76;21034;-71
2022/02/19 08:48:32;;;;;;;1.50;0.82;;;;;;;25.39;25.72;101805.12;1880809;75;21511;-74
2022/02/19 08:51:01;;;;;;;2.77;1.00;;;;;;;25.89;24.97;101810.34;1877977;76;21094;-65
2022/02/19 08:53:29;;;;;;;2.17;0.90;;;;;;;26.06;23.39;101808.41;1878082;76;21038;-63
2022/02/19 08:55:58;;;;;;;2.50;1.40;;;;;;;25.48;23.60;101813.44;1898717;75;21058;-63
2022/02/19 08:58:27;;;;;;;2.08;1.10;;;;;;;25.40;24.13;101808.20;1920502;75;21038;-63
2022/02/19 09:00:56;;;;;;;2.35;1.20;;;;;;;25.43;24.46;101818.73;1917338;75;21469;-65
2022/02/19 09:03:25;;;;;;;2.65;1.52;;;;;;;25.57;24.45;101818.04;1886209;75;21035;-65
2022/02/19 09:05:54;;;;;;;4.87;1.40;;;;;;;25.61;24.07;101820.83;1878077;76;21180;-64
2022/02/19 09:08:23;;;;;;;2.40;1.40;;;;;;;25.80;23.91;101820.08;1878015;76;21055;-66
2022/02/19 09:10:52;;;;;;;2.65;1.30;;;;;;;26.00;24.22;101818.38;1902801;75;21534;-71
2022/02/19 09:13:20;;;;;;;2.77;1.20;;;;;;;26.24;23.67;101823.45;1900373;75;21034;-71
2022/02/19 09:15:49;;;;;;;3.40;1.30;;;;;;;26.18;23.49;101819.45;1920453;75;21145;-66
2022/02/19 09:18:18;;;;;;;1.87;1.20;;;;;;;25.76;23.47;101818.64;1920433;75;21089;-63
2022/02/19 09:20:47;;;;;;;4.10;1.42;;;;;;;25.75;23.75;101828.59;1917398;75;21073;-67
2022/02/19 09:23:16;;;;;;;2.15;1.25;;;;;;;26.10;23.59;101830.08;1920529;75;21045;-64
2022/02/19 09:25:45;;;;;;;2.22;1.50;;;;;;;26.53;23.37;101826.75;1920495;75;21456;-70
2022/02/19 09:28:13;;;;;;;2.30;1.60;;;;;;;26.69;23.46;101823.53;1920407;75;21591;-69
2022/02/19 09:30:42;;;;;;;3.08;1.77;;;;;;;26.90;23.23;101830.20;1917462;75;21131;-69
2022/02/19 09:33:11;;;;;;;3.37;1.47;;;;;;;27.21;23.17;101822.81;1920524;75;21515;-66
2022/02/19 09:35:40;;;;;;;1.98;1.47;;;;;;;27.28;22.57;101817.23;1920635;75;21123;-66
2022/02/19 09:38:09;;;;;;;1.75;1.20;;;;;;;26.88;22.48;101826.78;1920567;75;21025;-66
2022/02/19 09:40:38;;;;;;;2.70;1.10;;;;;;;26.64;22.73;101822.61;1920355;75;21100;-67
2022/02/19 09:43:07;;;;;;;1.40;1.00;;;;;;;26.74;22.82;101826.20;1920523;75;21443;-73
2022/02/19 09:45:36;;;;;;;1.60;0.90;;;;;;;26.47;22.46;101829.51;1888694;75;21034;-73
2022/02/19 09:48:07;;;;;;;2.10;1.00;;;;;;;26.48;22.13;101822.25;1877976;76;21194;-69
2022/02/19 09:50:36;;;;;;;2.05;1.00;;;;;;;26.38;21.96;101814.13;1877923;76;21116;-70
2022/02/19 09:53:05;;;;;;;1.40;1.10;;;;;;;26.23;21.92;101808.73;1877767;76;21480;-72
2022/02/19 09:55:36;;;;;;;2.35;1.20;;;;;;;26.29;21.96;101814.95;1903074;75;21577;-69
2022/02/19 09:58:05;;;;;;;1.42;0.90;;;;;;;26.43;21.88;101811.00;1920477;75;21029;-67
2022/02/19 10:00:40;;;;;;;2.47;1.15;;;;;;;26.19;22.04;101807.67;1920489;75;21041;-69
2022/02/19 10:03:14;;;;;;;3.02;1.20;;;;;;;26.02;22.60;101802.90;1920457;75;21112;-68
2022/02/19 10:05:43;;;;;;;2.70;1.20;;;;;;;25.87;21.93;101804.22;1898729;75;21551;-69
2022/02/19 10:08:12;;;;;;;1.98;1.07;;;;;;;25.77;22.63;101805.03;1877914;76;21062;-66
2022/02/19 10:10:50;;;;;;;1.55;1.10;;;;;;;25.84;22.70;101804.48;1877944;76;21128;-66
2022/02/19 10:13:36;;;;;;;0.90;0.53;;;;;;;25.67;22.25;101801.91;1876981;76;21140;-66
2022/02/19 10:16:07;;;;;;;1.90;0.98;;;;;;;25.42;22.94;101802.18;1898017;73;21041;-66
2022/02/19 10:18:39;;;;;;;2.80;0.93;;;;;;;25.30;22.52;101803.22;1920656;75;21066;-67
2022/02/19 10:21:16;;;;;;;2.45;0.80;;;;;;;25.34;23.05;101797.95;1925484;73;21143;-66
2022/02/19 10:23:50;;;;;;;1.20;0.80;;;;;;;25.60;22.44;101805.62;1928835;74;21030;-66
2022/02/19 10:26:22;;;;;;;1.30;0.57;;;;;;;25.23;21.97;101808.73;1927916;74;21026;-67
2022/02/19 10:29:02;;;;;;;1.45;0.60;;;;;;;25.28;21.88;101805.69;1928758;74;21105;-68
2022/02/19 10:31:32;;;;;;;1.67;0.80;;;;;;;25.02;22.00;101795.23;1928791;73;21140;-66
2022/02/19 10:34:08;;;;;;;4.37;0.90;;;;;;;24.81;21.81;101803.28;1928935;74;21034;-66
2022/02/19 10:36:51;;;;;;;1.65;0.80;;;;;;;24.95;21.64;101799.42;1928835;74;21034;-64
2022/02/19 10:39:31;;;;;;;3.40;1.07;;;;;;;25.13;22.06;101799.23;1928892;74;21105;-64
2022/02/19 10:42:05;;;;;;;1.42;0.88;;;;;;;25.01;22.03;101790.82;1902189;74;21034;-64
2022/02/19 10:44:35;;;;;;;1.00;0.75;;;;;;;24.73;22.15;101795.81;1887760;75;21051;-66
2022/02/19 10:47:28;;;;;;;2.50;0.80;;;;;;;24.74;22.17;101789.95;1888542;76;21523;-67
2022/02/19 10:50:16;;;;;;;1.12;0.70;;;;;;;24.87;22.00;101785.25;1928279;73;21048;-67
2022/02/19 10:52:47;;;;;;;1.82;0.65;;;;;;;24.87;22.10;101783.91;1928828;74;21051;-69
2022/02/19 10:55:23;;;;;;;1.80;0.90;;;;;;;24.82;22.32;101783.43;1925450;73;21040;-69
2022/02/19 10:57:48;;;;;;;1.75;0.90;;;;;;;24.66;22.38;101779.83;1928187;73;21047;-70
2022/02/19 11:00:24;;;;;;;4.10;0.98;;;;;;;24.34;22.68;101781.06;1929239;74;21469;-70
2022/02/19 11:02:54;;;;;;;3.33;1.25;;;;;;;24.16;23.12;101780.24;1930760;74;21070;-68
2022/02/19 11:05:23;;;;;;;2.17;1.00;;;;;;;24.13;23.31;101775.09;1930867;74;21034;-66
2022/02/19 11:07:52;;;;;;;2.62;1.17;;;;;;;24.22;23.45;101786.47;1930785;74;21071;-71
2022/02/19 11:10:22;;;;;;;2.00;0.85;;;;;;;24.40;23.34;101776.52;1901477;74;21111;-69
2022/02/19 11:12:51;;;;;;;3.08;1.20;;;;;;;24.46;23.22;101776.04;1888781;76;21023;-65
2022/02/19 11:15:27;;;;;;;1.37;0.78;;;;;;;24.23;23.34;101773.36;1888820;76;21018;-65
2022/02/19 11:17:52;;;;;;;1.57;0.80;;;;;;;24.16;23.41;101778.02;1889991;74;21524;-69
2022/02/19 11:20:25;;;;;;;2.17;1.45;;;;;;;24.07;23.63;101780.98;1887849;75;21583;-63
2022/02/19 11:22:55;;;;;;;1.70;0.90;;;;;;;23.75;23.47;101779.45;1878004;76;21126;-74
2022/02/19 11:25:25;;;;;;;2.72;0.88;;;;;;;23.46;23.91;101780.75;1878013;76;21014;-73
2022/02/19 11:27:56;;;;;;;0.95;0.70;;;;;;;23.29;23.86;101786.55;1902923;73;21448;-70
2022/02/19 11:30:30;;;;;;;;;;;;;;;23.02;24.22;101774.23;1907645;73;21081;-68
2022/02/19 11:33:00;;;;;;;1.98;1.00;;;;;;;23.10;24.86;101777.20;1951916;73;20139;-69
2022/02/19 11:35:46;;;;;;;1.82;0.90;;;;;;;22.91;24.33;101776.88;1923390;73;21100;-68
2022/02/19 11:38:27;;;;;;;2.10;1.17;;;;;;;22.49;24.49;101776.39;1922811;73;21041;-66
2022/02/19 11:41:04;;;;;;;3.98;1.30;;;;;;;22.33;24.67;101780.17;1950885;73;21022;-65
2022/02/19 11:43:39;;;;;;;1.57;1.30;;;;;;;21.76;24.90;101777.95;1880868;73;21554;-68
2022/02/19 11:46:19;;;;;;;1.35;1.05;;;;;;;21.39;25.16;101783.16;1877964;76;21119;-69
2022/02/19 11:48:50;;;;;;;2.85;1.22;;;;;;;21.07;25.71;101775.97;1885515;75;21034;-66
2022/02/19 11:51:21;;;;;;;1.57;1.27;;;;;;;20.94;25.87;101775.94;1917291;75;21085;-66